Irmgard — A8YT9 — position and weather

sailwx.info

Track history (hours):
 
Tides and Currents Weather Stations Pressure Air Temp Water Temp Dewpoint Dewpoint Depression Visibility Wind Speed Wind Dir Waves Ship Positions

Irmgard

Last reported at 2018-May-02 00:48 UTC. Time now 2018-Jun-19 00:56 UTC.
Position N 40°58' E 027°56'.
Warning: this ship's position is 48 days out of date.

Length 180 m; draft 6.4 m.

Type: Cargo ship. MMSI: 636092220.

Date/timePositionNaut miles runAvg speedWind from/ knotsBaromVisibWave heightAir tempDewpointWater temp
2018-May-02 00:48N 40°58' E 027°56'2 0.1
2018-May-01 02:20N 40°57' E 027°54'0 0.0
2018-May-01 01:50N 40°57' E 027°54'0 0.0
2018-May-01 01:11N 40°57' E 027°54'0 0.1
2018-May-01 00:59N 40°57' E 027°54'93 7.4
2018-Apr-30 12:31N 40°02' E 026°16'012.4
2018-Apr-30 12:29N 40°02' E 026°16'4 9.1
2018-Apr-30 12:00N 40°01' E 026°10'510.1
2018-Apr-30 11:29N 39°59' E 026°03'1111.4
2018-Apr-30 10:29N 39°51' E 025°53'612.0
2018-Apr-30 10:00N 39°46' E 025°50'11912.7
2018-Apr-30 00:40N 37°47' E 025°46'213.4
2018-Apr-30 00:30N 37°44' E 025°46'713.4
2018-Apr-30 00:00N 37°38' E 025°47'713.3
2018-Apr-29 23:30N 37°31' E 025°48'713.2
2018-Apr-29 23:00N 37°25' E 025°52'15413.5
2018-Apr-29 11:37N 35°23' E 027°47'1213.8
2018-Apr-29 10:46N 35°13' E 027°53'413.9
2018-Apr-29 10:30N 35°09' E 027°54'713.8
2018-Apr-29 10:00N 35°03' E 027°58'23513.5
2018-Apr-28 16:38N 31°24' E 029°41'  
Track history (hours):
 
Tides and Currents Weather Stations Pressure Air Temp Water Temp Dewpoint Dewpoint Depression Visibility Wind Speed Wind Dir Waves Ship Positions

Irmgard

Last reported at 2018-May-02 00:48 UTC. Time now 2018-Jun-19 00:56 UTC.
Position N 40°58' E 027°56'.
Warning: this ship's position is 48 days out of date.

Length 180 m; draft 6.4 m.

Type: Cargo ship. MMSI: 636092220.

Date/timePositionNaut miles runAvg speedWind from/ knotsBaromVisibWave heightAir tempDewpointWater temp
2018-May-02 00:48N 40°58' E 027°56'2 0.1
2018-May-01 02:20N 40°57' E 027°54'0 0.0
2018-May-01 01:50N 40°57' E 027°54'0 0.0
2018-May-01 01:11N 40°57' E 027°54'0 0.1
2018-May-01 00:59N 40°57' E 027°54'93 7.4
2018-Apr-30 12:31N 40°02' E 026°16'012.4
2018-Apr-30 12:29N 40°02' E 026°16'4 9.1
2018-Apr-30 12:00N 40°01' E 026°10'510.1
2018-Apr-30 11:29N 39°59' E 026°03'1111.4
2018-Apr-30 10:29N 39°51' E 025°53'612.0
2018-Apr-30 10:00N 39°46' E 025°50'11912.7
2018-Apr-30 00:40N 37°47' E 025°46'213.4
2018-Apr-30 00:30N 37°44' E 025°46'713.4
2018-Apr-30 00:00N 37°38' E 025°47'713.3
2018-Apr-29 23:30N 37°31' E 025°48'713.2
2018-Apr-29 23:00N 37°25' E 025°52'15413.5
2018-Apr-29 11:37N 35°23' E 027°47'1213.8
2018-Apr-29 10:46N 35°13' E 027°53'413.9
2018-Apr-29 10:30N 35°09' E 027°54'713.8
2018-Apr-29 10:00N 35°03' E 027°58'23513.5
2018-Apr-28 16:38N 31°24' E 029°41'  

Dump ship's entire track history